createdAt,value
2023-05-06T00:00:25.018Z,52.89
2023-05-06T00:02:56.714Z,53.87
2023-05-06T00:05:26.817Z,58.87
2023-05-06T00:07:57.322Z,58.64
2023-05-06T00:10:27.467Z,58.20
2023-05-06T00:12:57.738Z,58.99
2023-05-06T00:15:29.169Z,64.00
2023-05-06T00:18:00.807Z,71.01
2023-05-06T00:20:31.453Z,73.40
2023-05-06T00:23:01.976Z,73.87
2023-05-06T00:25:32.655Z,75.25
2023-05-06T00:28:02.851Z,75.28
2023-05-06T00:30:33.091Z,74.94
2023-05-06T00:33:03.257Z,76.25
2023-05-06T00:35:33.834Z,72.49
2023-05-06T00:38:14.260Z,70.98
2023-05-06T00:40:45.662Z,70.13
2023-05-06T00:43:15.781Z,70.06
2023-05-06T00:45:47.391Z,70.28
2023-05-06T00:48:18.115Z,69.89
2023-05-06T00:50:48.789Z,69.67
2023-05-06T00:53:20.993Z,72.21
2023-05-06T00:55:52.642Z,71.63
2023-05-06T00:58:22.958Z,71.12
2023-05-06T01:00:53.696Z,69.50
2023-05-06T01:03:24.298Z,69.33
2023-05-06T01:06:00.665Z,70.46
2023-05-06T01:08:33.778Z,72.72
2023-05-06T01:11:26.220Z,73.05
2023-05-06T01:13:59.674Z,73.52
2023-05-06T01:16:32.295Z,73.60
2023-05-06T01:19:03.054Z,73.90
2023-05-06T01:21:36.130Z,73.32
2023-05-06T01:24:06.400Z,73.33
2023-05-06T01:26:36.504Z,73.20
2023-05-06T01:29:06.701Z,73.12
2023-05-06T01:31:44.087Z,72.63
2023-05-06T01:34:28.640Z,72.76
2023-05-06T01:37:01.947Z,72.67
2023-05-06T01:39:32.727Z,72.44
2023-05-06T01:42:04.327Z,72.60
2023-05-06T01:44:36.123Z,71.95
2023-05-06T01:47:07.409Z,71.79
2023-05-06T01:49:37.861Z,71.90
2023-05-06T01:52:08.096Z,71.99
2023-05-06T01:54:38.551Z,71.38
2023-05-06T01:57:08.715Z,72.37
2023-05-06T01:59:38.968Z,72.02
2023-05-06T02:02:09.693Z,71.20
2023-05-06T02:04:40.409Z,70.63
2023-05-06T02:07:11.318Z,70.28
2023-05-06T02:09:42.164Z,69.84
2023-05-06T02:12:12.910Z,69.82
2023-05-06T02:14:44.200Z,69.47
2023-05-06T02:17:14.630Z,69.11
2023-05-06T02:19:44.978Z,69.39
2023-05-06T02:22:15.291Z,69.40
2023-05-06T02:24:45.444Z,68.82
2023-05-06T02:27:16.189Z,68.93
2023-05-06T02:29:46.380Z,68.85
2023-05-06T02:32:16.468Z,69.00
2023-05-06T02:34:46.812Z,69.17
2023-05-06T02:37:17.016Z,68.49
2023-05-06T02:39:47.292Z,68.59
2023-05-06T02:42:17.802Z,68.38
2023-05-06T02:44:48.264Z,68.33
2023-05-06T02:47:18.001Z,68.12
2023-05-06T02:49:48.169Z,68.13
2023-05-06T02:52:18.008Z,67.90
2023-05-06T02:54:47.739Z,67.75
2023-05-06T02:57:17.466Z,67.63
2023-05-06T02:59:47.491Z,67.28
2023-05-06T03:02:17.209Z,67.26
2023-05-06T03:04:47.009Z,67.35
2023-05-06T03:07:17.761Z,67.04
2023-05-06T03:09:47.762Z,67.02
2023-05-06T03:12:17.645Z,66.94
2023-05-06T03:14:47.701Z,66.50
2023-05-06T03:17:17.465Z,66.56
2023-05-06T03:19:47.298Z,66.55
2023-05-06T03:22:17.045Z,66.15
2023-05-06T03:24:48.535Z,66.25
2023-05-06T03:27:19.684Z,66.18
2023-05-06T03:29:53.677Z,66.26
2023-05-06T03:32:25.661Z,66.17
2023-05-06T03:34:55.663Z,65.99
2023-05-06T03:37:25.573Z,65.83
2023-05-06T03:39:59.151Z,65.79
2023-05-06T03:42:29.822Z,65.55
2023-05-06T03:45:00.893Z,66.28
2023-05-06T03:47:34.090Z,66.43
2023-05-06T03:50:05.952Z,66.64
2023-05-06T03:52:37.432Z,66.66
2023-05-06T03:55:08.689Z,66.72
2023-05-06T03:57:40.214Z,66.76
2023-05-06T04:00:11.543Z,66.97
2023-05-06T04:02:49.342Z,66.98
2023-05-06T04:05:25.506Z,67.11
2023-05-06T04:07:56.451Z,66.90
2023-05-06T04:10:26.226Z,66.64
2023-05-06T04:13:00.727Z,66.57
2023-05-06T04:15:38.651Z,66.61
2023-05-06T04:18:11.817Z,66.57
2023-05-06T04:20:44.893Z,66.28
2023-05-06T04:23:15.469Z,65.97
2023-05-06T04:25:52.192Z,65.75
2023-05-06T04:28:24.725Z,65.20
2023-05-06T04:30:56.094Z,65.31
2023-05-06T04:33:32.500Z,65.27
2023-05-06T04:36:04.427Z,65.25
2023-05-06T04:38:36.766Z,64.97
2023-05-06T04:41:07.605Z,65.15
2023-05-06T04:43:37.588Z,65.08
2023-05-06T04:46:13.962Z,64.95
2023-05-06T04:48:45.645Z,64.68
2023-05-06T04:51:17.159Z,64.29
2023-05-06T04:53:47.793Z,64.07
2023-05-06T04:56:17.545Z,63.88
2023-05-06T04:58:48.346Z,63.61
2023-05-06T05:01:20.206Z,63.41
2023-05-06T05:03:50.524Z,63.24
2023-05-06T05:06:22.854Z,63.22
2023-05-06T05:08:53.838Z,62.88
2023-05-06T05:11:26.748Z,62.86
2023-05-06T05:13:58.860Z,62.81
2023-05-06T05:16:30.237Z,61.71
2023-05-06T05:19:03.020Z,58.70
2023-05-06T05:21:35.311Z,55.89
2023-05-06T05:24:06.605Z,53.44
2023-05-06T05:26:37.009Z,51.61
2023-05-06T05:29:07.648Z,50.25
2023-05-06T05:31:38.327Z,48.57
2023-05-06T05:34:08.743Z,47.99
2023-05-06T05:36:39.444Z,46.46
2023-05-06T05:39:12.543Z,46.17
2023-05-06T05:41:47.023Z,45.37
2023-05-06T05:44:17.140Z,44.66
2023-05-06T05:46:47.296Z,44.38
2023-05-06T05:49:20.291Z,44.08
2023-05-06T05:51:52.713Z,43.81
2023-05-06T05:54:24.284Z,43.11
2023-05-06T05:56:54.081Z,42.37
2023-05-06T05:59:24.578Z,42.67
2023-05-06T06:01:56.718Z,41.98
2023-05-06T06:04:28.152Z,42.09
2023-05-06T06:07:02.882Z,41.63
2023-05-06T06:09:37.032Z,41.32
2023-05-06T06:12:07.700Z,40.93
2023-05-06T06:14:41.458Z,41.21
2023-05-06T06:17:12.492Z,40.61
2023-05-06T06:19:42.447Z,40.28
2023-05-06T06:22:12.256Z,40.31
2023-05-06T06:24:42.099Z,40.14
2023-05-06T06:27:11.965Z,39.80
2023-05-06T06:29:41.804Z,40.31
2023-05-06T06:32:11.723Z,39.55
2023-05-06T06:34:42.299Z,39.42
2023-05-06T06:37:12.607Z,39.47
2023-05-06T06:39:42.521Z,39.50
2023-05-06T06:42:12.385Z,38.93
2023-05-06T06:44:57.779Z,39.36
2023-05-06T06:47:27.581Z,38.68
2023-05-06T06:49:57.437Z,39.03
2023-05-06T06:52:27.697Z,38.95
2023-05-06T06:54:57.359Z,38.63
2023-05-06T06:57:27.128Z,38.65
2023-05-06T06:59:57.042Z,38.34
2023-05-06T07:02:27.183Z,38.41
2023-05-06T07:04:56.973Z,38.57
2023-05-06T07:07:26.695Z,38.63
2023-05-06T07:09:56.562Z,37.92
2023-05-06T07:12:27.742Z,38.53
2023-05-06T07:14:57.714Z,37.65
2023-05-06T07:17:27.366Z,37.85
2023-05-06T07:19:57.131Z,37.90
2023-05-06T07:22:27.310Z,37.75
2023-05-06T07:24:57.103Z,37.40
2023-05-06T07:27:28.375Z,38.01
2023-05-06T07:29:58.603Z,37.27
2023-05-06T07:32:28.316Z,37.49
2023-05-06T07:34:58.194Z,37.08
2023-05-06T07:37:28.002Z,37.49
2023-05-06T07:39:58.755Z,37.19
2023-05-06T07:42:28.584Z,37.01
2023-05-06T07:44:58.714Z,37.46
2023-05-06T07:47:32.974Z,37.09
2023-05-06T07:50:02.868Z,36.67
2023-05-06T07:52:32.701Z,36.88
2023-05-06T07:55:02.878Z,36.75
2023-05-06T07:57:32.551Z,37.06
2023-05-06T08:00:02.259Z,37.21
2023-05-06T08:02:45.320Z,36.55
2023-05-06T08:05:15.732Z,37.11
2023-05-06T08:07:45.496Z,37.36
2023-05-06T08:10:15.274Z,38.05
2023-05-06T08:12:45.760Z,37.63
2023-05-06T08:15:15.506Z,37.96
2023-05-06T08:17:45.786Z,37.39
2023-05-06T08:20:15.811Z,37.64
2023-05-06T08:22:45.537Z,37.10
2023-05-06T08:25:15.201Z,37.25
2023-05-06T08:27:44.924Z,37.34
2023-05-06T08:30:14.933Z,37.47
2023-05-06T08:32:44.740Z,37.68
2023-05-06T08:35:14.865Z,37.82
2023-05-06T08:37:44.816Z,37.74
2023-05-06T08:40:20.270Z,37.62
2023-05-06T08:42:51.016Z,39.55
2023-05-06T08:45:21.053Z,39.74
2023-05-06T08:47:51.019Z,39.51
2023-05-06T08:50:20.754Z,40.04
2023-05-06T08:52:50.536Z,39.76
2023-05-06T08:55:20.777Z,39.75
2023-05-06T08:57:51.829Z,40.04
2023-05-06T09:00:21.844Z,39.96
2023-05-06T09:02:52.044Z,41.69
2023-05-06T09:05:22.010Z,44.74
2023-05-06T09:07:51.772Z,46.32
2023-05-06T09:10:21.895Z,46.03
2023-05-06T09:12:54.802Z,50.55
2023-05-06T09:15:28.236Z,54.86
2023-05-06T09:17:58.008Z,53.86
2023-05-06T09:20:27.955Z,54.62
2023-05-06T09:22:57.784Z,54.42
2023-05-06T09:25:27.544Z,52.55
2023-05-06T09:28:10.433Z,53.21
2023-05-06T09:30:42.310Z,52.97
2023-05-06T09:33:12.932Z,52.25
2023-05-06T09:35:44.370Z,51.89
2023-05-06T09:38:14.478Z,51.28
2023-05-06T09:40:44.845Z,50.80
2023-05-06T09:43:17.031Z,50.97
2023-05-06T09:45:47.714Z,50.52
2023-05-06T09:48:18.117Z,50.68
2023-05-06T09:50:49.298Z,51.53
2023-05-06T09:53:20.716Z,53.71
2023-05-06T09:55:51.284Z,53.02
2023-05-06T09:58:24.359Z,53.55
2023-05-06T10:00:54.745Z,55.09
2023-05-06T10:03:26.250Z,56.40
2023-05-06T10:05:58.543Z,57.97
2023-05-06T10:08:28.899Z,58.24
2023-05-06T10:11:00.277Z,58.35
2023-05-06T10:13:31.476Z,59.08
2023-05-06T10:16:03.830Z,59.91
2023-05-06T10:18:34.167Z,61.10
2023-05-06T10:21:05.468Z,61.84
2023-05-06T10:23:40.774Z,61.29
2023-05-06T10:26:13.061Z,61.32
2023-05-06T10:28:44.137Z,60.65
2023-05-06T10:31:15.163Z,60.29
2023-05-06T10:33:47.770Z,60.18
2023-05-06T10:36:17.989Z,61.11
2023-05-06T10:38:50.670Z,60.68
2023-05-06T10:41:22.626Z,60.74
2023-05-06T10:43:57.898Z,61.61
2023-05-06T10:46:29.413Z,62.14
2023-05-06T10:49:12.343Z,62.15
2023-05-06T10:52:13.402Z,62.84
2023-05-06T10:54:51.589Z,62.61
2023-05-06T10:57:28.154Z,62.86
2023-05-06T10:59:58.274Z,63.01
2023-05-06T11:02:32.289Z,63.19
2023-05-06T11:05:03.410Z,63.14
2023-05-06T11:07:33.572Z,62.89
2023-05-06T11:10:06.551Z,63.33
2023-05-06T11:12:57.131Z,62.94
2023-05-06T11:15:41.343Z,63.22
2023-05-06T11:18:26.548Z,63.64
2023-05-06T11:21:03.817Z,63.06
2023-05-06T11:23:53.504Z,62.75
2023-05-06T11:26:23.531Z,63.52
2023-05-06T11:28:53.656Z,64.54
2023-05-06T11:31:23.929Z,65.34
2023-05-06T11:33:55.782Z,66.26
2023-05-06T11:36:25.775Z,64.26
2023-05-06T11:38:57.597Z,59.92
2023-05-06T11:41:27.734Z,57.08
2023-05-06T11:43:57.894Z,53.87
2023-05-06T11:46:31.228Z,51.58
2023-05-06T11:49:02.041Z,51.07
2023-05-06T11:51:33.928Z,49.70
2023-05-06T11:54:08.388Z,48.45
2023-05-06T11:56:48.386Z,46.27
2023-05-06T11:59:19.993Z,45.32
2023-05-06T12:01:50.543Z,45.88
2023-05-06T12:04:20.640Z,44.88
2023-05-06T12:06:50.817Z,44.23
2023-05-06T12:09:23.547Z,43.90
2023-05-06T12:11:54.234Z,43.36
2023-05-06T12:14:24.631Z,42.81
2023-05-06T12:16:56.117Z,42.72
2023-05-06T12:19:26.288Z,42.23
2023-05-06T12:21:57.092Z,43.09
2023-05-06T12:24:33.026Z,42.48
2023-05-06T12:27:03.043Z,42.85
2023-05-06T12:29:33.865Z,42.70
2023-05-06T12:32:11.201Z,41.94
2023-05-06T12:34:42.110Z,42.26
2023-05-06T12:37:12.241Z,42.34
2023-05-06T12:39:42.815Z,42.12
2023-05-06T12:42:24.416Z,42.13
2023-05-06T12:44:54.855Z,41.56
2023-05-06T12:47:26.138Z,41.13
2023-05-06T12:50:00.193Z,40.80
2023-05-06T12:52:31.332Z,41.07
2023-05-06T12:55:02.566Z,41.35
2023-05-06T12:57:32.650Z,40.43
2023-05-06T13:00:02.731Z,40.51
2023-05-06T13:02:33.067Z,40.26
2023-05-06T13:05:03.551Z,42.24
2023-05-06T13:07:33.579Z,43.40
2023-05-06T13:10:04.876Z,43.44
2023-05-06T13:12:34.997Z,44.15
2023-05-06T13:15:05.819Z,48.80
2023-05-06T13:17:35.892Z,47.01
2023-05-06T13:20:06.607Z,45.99
2023-05-06T13:22:50.733Z,45.01
2023-05-06T13:25:23.758Z,44.06
2023-05-06T13:27:54.328Z,43.68
2023-05-06T13:30:24.391Z,44.09
2023-05-06T13:32:54.440Z,43.52
2023-05-06T13:35:24.450Z,43.15
2023-05-06T13:37:54.562Z,42.69
2023-05-06T13:40:24.933Z,42.19
2023-05-06T13:42:57.818Z,43.03
2023-05-06T13:45:27.878Z,45.35
2023-05-06T13:47:57.976Z,50.02
2023-05-06T13:50:28.221Z,49.51
2023-05-06T13:52:58.349Z,48.51
2023-05-06T13:55:28.686Z,47.02
2023-05-06T13:57:58.736Z,46.41
2023-05-06T14:00:29.060Z,45.84
2023-05-06T14:02:59.178Z,44.97
2023-05-06T14:05:29.636Z,44.81
2023-05-06T14:08:00.085Z,44.36
2023-05-06T14:10:30.441Z,45.00
2023-05-06T14:13:00.778Z,44.16
2023-05-06T14:15:31.255Z,45.07
2023-05-06T14:18:01.381Z,44.67
2023-05-06T14:20:31.938Z,44.94
2023-05-06T14:23:02.025Z,44.43
2023-05-06T14:25:32.498Z,43.60
2023-05-06T14:28:02.775Z,42.85
2023-05-06T14:30:33.717Z,42.95
2023-05-06T14:33:03.835Z,45.93
2023-05-06T14:35:33.956Z,44.63
2023-05-06T14:38:04.710Z,43.78
2023-05-06T14:40:35.075Z,42.62
2023-05-06T14:43:05.500Z,41.74
2023-05-06T14:45:35.580Z,41.65
2023-05-06T14:48:06.119Z,40.65
2023-05-06T14:50:36.304Z,40.93
2023-05-06T14:53:06.555Z,43.39
2023-05-06T14:55:37.045Z,42.39
2023-05-06T14:58:07.281Z,42.09
2023-05-06T15:00:37.482Z,41.48
2023-05-06T15:03:08.112Z,40.83
2023-05-06T15:05:38.719Z,40.11
2023-05-06T15:08:09.042Z,39.82
2023-05-06T15:10:39.193Z,39.33
2023-05-06T15:13:09.607Z,39.50
2023-05-06T15:15:39.582Z,39.34
2023-05-06T15:18:09.654Z,38.66
2023-05-06T15:20:39.747Z,38.21
2023-05-06T15:23:09.761Z,38.52
2023-05-06T15:25:41.099Z,38.05
2023-05-06T15:28:11.403Z,38.66
2023-05-06T15:30:41.450Z,38.46
2023-05-06T15:33:11.537Z,38.51
2023-05-06T15:35:41.694Z,38.26
2023-05-06T15:38:12.353Z,38.68
2023-05-06T15:40:42.469Z,39.24
2023-05-06T15:43:17.732Z,40.57
2023-05-06T15:45:52.805Z,41.31
2023-05-06T15:48:23.536Z,41.06
2023-05-06T15:50:53.580Z,41.15
2023-05-06T15:53:23.592Z,41.09
2023-05-06T15:55:57.319Z,40.47
2023-05-06T15:58:35.775Z,42.45
2023-05-06T16:01:06.239Z,43.02
2023-05-06T16:03:37.755Z,43.38
2023-05-06T16:06:08.999Z,43.17
2023-05-06T16:08:40.133Z,42.32
2023-05-06T16:11:10.908Z,42.56
2023-05-06T16:13:41.669Z,42.22
2023-05-06T16:16:12.010Z,41.92
2023-05-06T16:18:42.202Z,42.18
2023-05-06T16:21:15.651Z,41.44
2023-05-06T16:23:45.680Z,41.33
2023-05-06T16:26:16.202Z,41.10
2023-05-06T16:28:46.368Z,40.43
2023-05-06T16:31:16.640Z,40.83
2023-05-06T16:33:46.822Z,40.62
2023-05-06T16:36:17.220Z,40.31
2023-05-06T16:38:47.901Z,40.36
2023-05-06T16:41:18.150Z,40.48
2023-05-06T16:43:48.422Z,39.91
2023-05-06T16:46:18.664Z,40.11
2023-05-06T16:48:49.052Z,39.83
2023-05-06T16:51:19.300Z,39.87
2023-05-06T16:53:49.840Z,40.11
2023-05-06T16:56:20.401Z,39.77
2023-05-06T16:58:50.652Z,39.69
2023-05-06T17:01:23.734Z,40.22
2023-05-06T17:03:54.018Z,40.21
2023-05-06T17:06:29.120Z,40.44
2023-05-06T17:09:02.408Z,40.36
2023-05-06T17:11:32.586Z,40.25
2023-05-06T17:14:02.753Z,39.95
2023-05-06T17:16:32.854Z,40.31
2023-05-06T17:19:02.896Z,39.92
2023-05-06T17:21:33.034Z,40.35
2023-05-06T17:24:03.258Z,40.22
2023-05-06T17:26:34.575Z,39.94
2023-05-06T17:29:05.403Z,40.32
2023-05-06T17:31:35.447Z,40.39
2023-05-06T17:34:05.523Z,39.81
2023-05-06T17:36:35.608Z,40.51
2023-05-06T17:39:07.231Z,40.27
2023-05-06T17:41:40.589Z,40.25
2023-05-06T17:44:10.806Z,40.26
2023-05-06T17:46:40.995Z,40.22
2023-05-06T17:49:11.918Z,40.50
2023-05-06T17:51:43.857Z,40.37
2023-05-06T17:54:14.411Z,40.29
2023-05-06T17:56:59.688Z,40.62
2023-05-06T17:59:30.528Z,40.24
2023-05-06T18:02:01.596Z,40.72
2023-05-06T18:04:31.717Z,40.56
2023-05-06T18:07:01.824Z,40.37
2023-05-06T18:09:33.685Z,40.32
2023-05-06T18:12:04.012Z,40.31
2023-05-06T18:14:34.629Z,40.35
2023-05-06T18:17:04.753Z,40.18
2023-05-06T18:19:35.261Z,40.64
2023-05-06T18:22:05.284Z,40.25
2023-05-06T18:24:36.048Z,40.45
2023-05-06T18:27:12.121Z,40.81
2023-05-06T18:29:42.626Z,40.28
2023-05-06T18:32:12.705Z,40.50
2023-05-06T18:34:43.030Z,40.31
2023-05-06T18:37:13.101Z,40.64
2023-05-06T18:39:43.994Z,40.46
2023-05-06T18:42:14.023Z,40.61
2023-05-06T18:44:44.323Z,40.41
2023-05-06T18:47:14.479Z,40.52
2023-05-06T18:49:44.596Z,40.26
2023-05-06T18:52:16.237Z,39.98
2023-05-06T18:54:47.632Z,40.65
2023-05-06T18:57:17.752Z,40.51
2023-05-06T18:59:48.403Z,40.42
2023-05-06T19:02:18.587Z,40.49
2023-05-06T19:04:48.555Z,40.89
2023-05-06T19:07:18.616Z,40.80
2023-05-06T19:09:48.831Z,40.33
2023-05-06T19:12:19.686Z,40.63
2023-05-06T19:14:49.845Z,40.38
2023-05-06T19:17:20.200Z,40.40
2023-05-06T19:19:50.457Z,40.65
2023-05-06T19:22:20.425Z,40.65
2023-05-06T19:24:50.499Z,40.44
2023-05-06T19:27:20.442Z,40.57
2023-05-06T19:29:50.408Z,40.42
2023-05-06T19:32:20.605Z,40.64
2023-05-06T19:34:50.677Z,40.37
2023-05-06T19:37:20.764Z,40.59
2023-05-06T19:39:50.930Z,40.88
2023-05-06T19:42:20.897Z,40.60
2023-05-06T19:44:51.049Z,40.70
2023-05-06T19:47:21.106Z,40.76
2023-05-06T19:49:52.651Z,40.87
2023-05-06T19:52:22.703Z,40.75
2023-05-06T19:54:53.791Z,41.10
2023-05-06T19:57:24.627Z,40.85
2023-05-06T19:59:55.653Z,40.96
2023-05-06T20:02:25.821Z,40.67
2023-05-06T20:04:55.921Z,40.90
2023-05-06T20:07:26.302Z,40.79
2023-05-06T20:09:57.219Z,40.91
2023-05-06T20:12:31.467Z,40.48
2023-05-06T20:15:01.644Z,40.91
2023-05-06T20:17:31.811Z,40.68
2023-05-06T20:20:04.174Z,41.03
2023-05-06T20:22:34.902Z,40.98
2023-05-06T20:25:11.021Z,40.64
2023-05-06T20:27:41.427Z,40.76
2023-05-06T20:30:11.932Z,40.82
2023-05-06T20:32:42.295Z,40.65
2023-05-06T20:35:13.478Z,40.49
2023-05-06T20:37:43.888Z,40.66
2023-05-06T20:40:14.146Z,40.52
2023-05-06T20:42:44.164Z,40.78
2023-05-06T20:45:14.574Z,40.80
2023-05-06T20:47:44.692Z,40.37
2023-05-06T20:50:18.068Z,40.53
2023-05-06T20:52:48.581Z,40.41
2023-05-06T20:55:21.761Z,40.23
2023-05-06T20:57:52.062Z,40.54
2023-05-06T21:00:22.654Z,40.76
2023-05-06T21:02:52.769Z,40.63
2023-05-06T21:05:23.045Z,40.76
2023-05-06T21:07:53.147Z,40.86
2023-05-06T21:10:23.659Z,40.77
2023-05-06T21:12:53.807Z,40.93
2023-05-06T21:15:23.920Z,40.71
2023-05-06T21:17:54.465Z,40.63
2023-05-06T21:20:24.514Z,40.73
2023-05-06T21:22:54.592Z,41.09
2023-05-06T21:25:24.666Z,41.03
2023-05-06T21:27:54.660Z,41.15
2023-05-06T21:30:24.699Z,41.32
2023-05-06T21:32:55.176Z,40.64
2023-05-06T21:35:26.271Z,40.78
2023-05-06T21:37:56.311Z,40.40
2023-05-06T21:40:26.339Z,40.66
2023-05-06T21:42:56.544Z,40.70
2023-05-06T21:45:26.822Z,40.46
2023-05-06T21:47:57.132Z,40.31
2023-05-06T21:50:27.205Z,40.53
2023-05-06T21:52:57.235Z,40.31
2023-05-06T21:55:29.071Z,40.38
2023-05-06T21:57:59.124Z,40.47
2023-05-06T22:00:29.561Z,40.52
2023-05-06T22:03:00.210Z,40.25
2023-05-06T22:05:30.182Z,40.40
2023-05-06T22:08:00.283Z,40.41
2023-05-06T22:10:30.337Z,40.37
2023-05-06T22:13:00.863Z,40.49
2023-05-06T22:15:30.908Z,40.37
2023-05-06T22:18:01.039Z,40.71
2023-05-06T22:20:31.967Z,40.38
2023-05-06T22:23:02.050Z,40.60
2023-05-06T22:25:32.060Z,40.50
2023-05-06T22:28:02.156Z,40.25
2023-05-06T22:30:32.289Z,40.01
2023-05-06T22:33:03.518Z,39.86
2023-05-06T22:35:33.550Z,40.01
2023-05-06T22:38:03.547Z,39.88
2023-05-06T22:40:33.545Z,39.76
2023-05-06T22:43:03.577Z,39.85
2023-05-06T22:45:33.968Z,40.00
2023-05-06T22:48:03.994Z,40.34
2023-05-06T22:50:34.294Z,40.04
2023-05-06T22:53:13.616Z,40.01
2023-05-06T22:55:46.795Z,40.23
2023-05-06T22:58:16.922Z,40.46
2023-05-06T23:00:49.177Z,40.54
2023-05-06T23:03:23.745Z,42.14
2023-05-06T23:05:53.988Z,43.02
2023-05-06T23:08:24.110Z,43.78
2023-05-06T23:10:54.434Z,44.42
2023-05-06T23:13:24.576Z,44.55
2023-05-06T23:15:54.780Z,45.30
2023-05-06T23:18:24.804Z,45.91
2023-05-06T23:20:54.785Z,46.45
2023-05-06T23:23:24.864Z,46.91
2023-05-06T23:25:54.846Z,47.99
2023-05-06T23:28:24.972Z,48.50
2023-05-06T23:30:55.460Z,48.63
2023-05-06T23:33:26.055Z,49.17
2023-05-06T23:35:56.162Z,49.72
2023-05-06T23:38:26.744Z,50.70
2023-05-06T23:40:57.119Z,50.60
2023-05-06T23:43:27.324Z,51.28
2023-05-06T23:45:57.943Z,51.15
2023-05-06T23:48:28.192Z,51.79
2023-05-06T23:50:58.737Z,60.54
2023-05-06T23:53:28.718Z,64.60
2023-05-06T23:55:58.796Z,66.29
2023-05-06T23:58:28.926Z,67.36
